sensor_id;sensor_type;location;lat;lon;timestamp;P1;durP1;ratioP1;P2;durP2;ratioP2
74876;SDS011;63425;44.786;37.682;2022-09-20T00:03:30;9.10;;;0.95;;
74876;SDS011;63425;44.786;37.682;2022-09-20T00:05:59;8.77;;;1.30;;
74876;SDS011;63425;44.786;37.682;2022-09-20T00:08:27;5.55;;;0.95;;
74876;SDS011;63425;44.786;37.682;2022-09-20T00:10:59;6.03;;;1.00;;
74876;SDS011;63425;44.786;37.682;2022-09-20T00:13:28;5.07;;;1.95;;
74876;SDS011;63425;44.786;37.682;2022-09-20T00:15:56;11.15;;;1.20;;
74876;SDS011;63425;44.786;37.682;2022-09-20T00:18:22;7.32;;;1.13;;
74876;SDS011;63425;44.786;37.682;2022-09-20T00:20:50;5.53;;;0.65;;
74876;SDS011;63425;44.786;37.682;2022-09-20T00:23:18;7.30;;;1.08;;
74876;SDS011;63425;44.786;37.682;2022-09-20T00:25:54;7.43;;;1.08;;
74876;SDS011;63425;44.786;37.682;2022-09-20T00:28:21;9.30;;;1.00;;
74876;SDS011;63425;44.786;37.682;2022-09-20T00:30:50;8.38;;;1.13;;
74876;SDS011;63425;44.786;37.682;2022-09-20T00:33:18;10.77;;;1.35;;
74876;SDS011;63425;44.786;37.682;2022-09-20T00:35:47;6.63;;;0.85;;
74876;SDS011;63425;44.786;37.682;2022-09-20T00:38:13;7.60;;;1.17;;
74876;SDS011;63425;44.786;37.682;2022-09-20T00:40:42;7.53;;;0.90;;
74876;SDS011;63425;44.786;37.682;2022-09-20T00:43:33;6.15;;;0.75;;
74876;SDS011;63425;44.786;37.682;2022-09-20T00:46:02;8.65;;;0.93;;
74876;SDS011;63425;44.786;37.682;2022-09-20T00:48:30;6.57;;;0.90;;
74876;SDS011;63425;44.786;37.682;2022-09-20T00:51:01;9.00;;;1.63;;
74876;SDS011;63425;44.786;37.682;2022-09-20T00:53:32;5.07;;;0.73;;
74876;SDS011;63425;44.786;37.682;2022-09-20T00:56:03;8.55;;;0.93;;
74876;SDS011;63425;44.786;37.682;2022-09-20T00:58:31;9.07;;;1.40;;
74876;SDS011;63425;44.786;37.682;2022-09-20T01:01:00;4.47;;;0.80;;
74876;SDS011;63425;44.786;37.682;2022-09-20T01:03:28;5.63;;;1.00;;
74876;SDS011;63425;44.786;37.682;2022-09-20T01:05:56;5.43;;;0.67;;
74876;SDS011;63425;44.786;37.682;2022-09-20T01:08:27;6.22;;;0.70;;
74876;SDS011;63425;44.786;37.682;2022-09-20T01:10:53;5.82;;;1.05;;
74876;SDS011;63425;44.786;37.682;2022-09-20T01:13:27;5.35;;;0.68;;
74876;SDS011;63425;44.786;37.682;2022-09-20T01:15:53;6.40;;;0.98;;
74876;SDS011;63425;44.786;37.682;2022-09-20T01:18:20;3.97;;;0.50;;
74876;SDS011;63425;44.786;37.682;2022-09-20T01:20:50;8.38;;;0.95;;
74876;SDS011;63425;44.786;37.682;2022-09-20T01:28:30;9.88;;;1.08;;
74876;SDS011;63425;44.786;37.682;2022-09-20T01:33:51;6.35;;;0.85;;
74876;SDS011;63425;44.786;37.682;2022-09-20T01:36:21;19.02;;;1.98;;
74876;SDS011;63425;44.786;37.682;2022-09-20T01:41:32;7.00;;;1.13;;
74876;SDS011;63425;44.786;37.682;2022-09-20T01:44:04;5.87;;;0.90;;
74876;SDS011;63425;44.786;37.682;2022-09-20T01:46:34;7.65;;;1.02;;
74876;SDS011;63425;44.786;37.682;2022-09-20T02:02:24;7.97;;;1.02;;
74876;SDS011;63425;44.786;37.682;2022-09-20T02:07:45;10.82;;;1.60;;
74876;SDS011;63425;44.786;37.682;2022-09-20T02:10:23;10.00;;;1.53;;
74876;SDS011;63425;44.786;37.682;2022-09-20T02:13:00;8.90;;;1.42;;
74876;SDS011;63425;44.786;37.682;2022-09-20T02:21:16;12.20;;;2.15;;
74876;SDS011;63425;44.786;37.682;2022-09-20T02:29:14;6.40;;;1.02;;
74876;SDS011;63425;44.786;37.682;2022-09-20T02:39:44;9.82;;;2.35;;
74876;SDS011;63425;44.786;37.682;2022-09-20T02:42:23;14.23;;;1.80;;
74876;SDS011;63425;44.786;37.682;2022-09-20T02:47:41;7.53;;;1.63;;
74876;SDS011;63425;44.786;37.682;2022-09-20T02:55:33;8.05;;;1.50;;
74876;SDS011;63425;44.786;37.682;2022-09-20T02:58:25;10.38;;;2.20;;
74876;SDS011;63425;44.786;37.682;2022-09-20T03:12:01;12.85;;;1.20;;
74876;SDS011;63425;44.786;37.682;2022-09-20T03:14:27;8.17;;;1.27;;
74876;SDS011;63425;44.786;37.682;2022-09-20T03:37:37;9.52;;;1.40;;
74876;SDS011;63425;44.786;37.682;2022-09-20T03:42:53;7.25;;;1.85;;
74876;SDS011;63425;44.786;37.682;2022-09-20T04:03:27;5.47;;;0.95;;
74876;SDS011;63425;44.786;37.682;2022-09-20T04:14:48;9.57;;;1.27;;
74876;SDS011;63425;44.786;37.682;2022-09-20T04:19:48;5.72;;;0.70;;
74876;SDS011;63425;44.786;37.682;2022-09-20T04:22:19;10.93;;;1.42;;
74876;SDS011;63425;44.786;37.682;2022-09-20T04:27:18;9.18;;;0.80;;
74876;SDS011;63425;44.786;37.682;2022-09-20T04:34:49;7.30;;;0.90;;
74876;SDS011;63425;44.786;37.682;2022-09-20T04:37:40;5.78;;;0.55;;
74876;SDS011;63425;44.786;37.682;2022-09-20T04:56:40;7.55;;;0.60;;
74876;SDS011;63425;44.786;37.682;2022-09-20T05:12:53;4.07;;;0.50;;
74876;SDS011;63425;44.786;37.682;2022-09-20T05:15:38;3.70;;;0.40;;
74876;SDS011;63425;44.786;37.682;2022-09-20T05:26:16;6.25;;;1.17;;
74876;SDS011;63425;44.786;37.682;2022-09-20T05:41:41;6.78;;;1.42;;
74876;SDS011;63425;44.786;37.682;2022-09-20T05:49:38;4.43;;;0.85;;
74876;SDS011;63425;44.786;37.682;2022-09-20T06:02:45;4.50;;;0.73;;
74876;SDS011;63425;44.786;37.682;2022-09-20T06:05:18;8.15;;;1.60;;
74876;SDS011;63425;44.786;37.682;2022-09-20T06:10:26;6.20;;;1.42;;
74876;SDS011;63425;44.786;37.682;2022-09-20T06:20:50;6.30;;;1.30;;
74876;SDS011;63425;44.786;37.682;2022-09-20T06:23:22;6.50;;;1.55;;
74876;SDS011;63425;44.786;37.682;2022-09-20T06:28:37;5.20;;;0.90;;
74876;SDS011;63425;44.786;37.682;2022-09-20T06:31:06;9.32;;;0.80;;
74876;SDS011;63425;44.786;37.682;2022-09-20T06:33:42;3.92;;;0.85;;
74876;SDS011;63425;44.786;37.682;2022-09-20T06:36:12;3.90;;;0.52;;
74876;SDS011;63425;44.786;37.682;2022-09-20T06:41:49;4.07;;;0.75;;
74876;SDS011;63425;44.786;37.682;2022-09-20T06:44:18;4.85;;;1.10;;
74876;SDS011;63425;44.786;37.682;2022-09-20T06:46:45;8.93;;;1.10;;
74876;SDS011;63425;44.786;37.682;2022-09-20T06:49:12;4.43;;;0.88;;
74876;SDS011;63425;44.786;37.682;2022-09-20T06:51:38;6.55;;;1.20;;
74876;SDS011;63425;44.786;37.682;2022-09-20T06:54:06;7.05;;;1.70;;
74876;SDS011;63425;44.786;37.682;2022-09-20T06:56:40;8.60;;;1.00;;
74876;SDS011;63425;44.786;37.682;2022-09-20T06:59:10;5.95;;;0.82;;
74876;SDS011;63425;44.786;37.682;2022-09-20T07:01:39;6.65;;;0.70;;
74876;SDS011;63425;44.786;37.682;2022-09-20T07:04:06;7.07;;;0.90;;
74876;SDS011;63425;44.786;37.682;2022-09-20T07:06:35;10.82;;;0.80;;
74876;SDS011;63425;44.786;37.682;2022-09-20T07:09:01;12.60;;;1.42;;
74876;SDS011;63425;44.786;37.682;2022-09-20T07:11:29;6.15;;;1.10;;
74876;SDS011;63425;44.786;37.682;2022-09-20T07:13:59;6.85;;;0.80;;
74876;SDS011;63425;44.786;37.682;2022-09-20T07:16:27;9.70;;;1.48;;
74876;SDS011;63425;44.786;37.682;2022-09-20T07:18:53;10.02;;;1.42;;
74876;SDS011;63425;44.786;37.682;2022-09-20T07:21:21;10.77;;;2.15;;
74876;SDS011;63425;44.786;37.682;2022-09-20T07:23:49;7.75;;;0.93;;
74876;SDS011;63425;44.786;37.682;2022-09-20T07:26:21;5.18;;;0.82;;
74876;SDS011;63425;44.786;37.682;2022-09-20T07:28:49;7.23;;;1.00;;
74876;SDS011;63425;44.786;37.682;2022-09-20T07:31:21;10.90;;;2.00;;
74876;SDS011;63425;44.786;37.682;2022-09-20T07:33:52;7.85;;;2.03;;
74876;SDS011;63425;44.786;37.682;2022-09-20T07:36:20;10.88;;;1.33;;
74876;SDS011;63425;44.786;37.682;2022-09-20T07:38:49;11.65;;;1.08;;
74876;SDS011;63425;44.786;37.682;2022-09-20T07:41:17;11.53;;;1.13;;
74876;SDS011;63425;44.786;37.682;2022-09-20T07:43:47;5.60;;;1.00;;
74876;SDS011;63425;44.786;37.682;2022-09-20T07:46:17;5.82;;;1.17;;
74876;SDS011;63425;44.786;37.682;2022-09-20T07:48:49;5.85;;;1.40;;
74876;SDS011;63425;44.786;37.682;2022-09-20T07:51:17;7.93;;;1.42;;
74876;SDS011;63425;44.786;37.682;2022-09-20T07:53:47;13.57;;;2.37;;
74876;SDS011;63425;44.786;37.682;2022-09-20T07:56:17;13.52;;;2.15;;
74876;SDS011;63425;44.786;37.682;2022-09-20T07:58:43;9.65;;;1.33;;
74876;SDS011;63425;44.786;37.682;2022-09-20T08:01:11;9.95;;;2.35;;
74876;SDS011;63425;44.786;37.682;2022-09-20T08:03:39;7.93;;;1.55;;
74876;SDS011;63425;44.786;37.682;2022-09-20T08:06:18;8.67;;;1.60;;
74876;SDS011;63425;44.786;37.682;2022-09-20T08:08:47;6.40;;;1.55;;
74876;SDS011;63425;44.786;37.682;2022-09-20T08:11:18;5.43;;;1.10;;
74876;SDS011;63425;44.786;37.682;2022-09-20T08:13:46;10.27;;;1.50;;
74876;SDS011;63425;44.786;37.682;2022-09-20T08:16:13;8.43;;;1.35;;
74876;SDS011;63425;44.786;37.682;2022-09-20T08:18:48;8.30;;;2.43;;
74876;SDS011;63425;44.786;37.682;2022-09-20T08:21:16;8.40;;;1.50;;
74876;SDS011;63425;44.786;37.682;2022-09-20T08:23:47;11.48;;;1.70;;
74876;SDS011;63425;44.786;37.682;2022-09-20T08:26:18;9.77;;;1.40;;
74876;SDS011;63425;44.786;37.682;2022-09-20T08:28:49;12.00;;;1.20;;
74876;SDS011;63425;44.786;37.682;2022-09-20T08:31:21;48.20;;;4.47;;
74876;SDS011;63425;44.786;37.682;2022-09-20T08:33:49;7.80;;;1.30;;
74876;SDS011;63425;44.786;37.682;2022-09-20T08:36:18;12.25;;;2.17;;
74876;SDS011;63425;44.786;37.682;2022-09-20T08:38:57;7.85;;;1.88;;
74876;SDS011;63425;44.786;37.682;2022-09-20T08:41:29;11.57;;;1.60;;
74876;SDS011;63425;44.786;37.682;2022-09-20T08:43:58;10.53;;;1.37;;
74876;SDS011;63425;44.786;37.682;2022-09-20T08:46:28;9.60;;;1.40;;
74876;SDS011;63425;44.786;37.682;2022-09-20T08:48:56;9.25;;;2.05;;
74876;SDS011;63425;44.786;37.682;2022-09-20T08:51:27;7.43;;;0.80;;
74876;SDS011;63425;44.786;37.682;2022-09-20T08:53:59;24.90;;;2.88;;
74876;SDS011;63425;44.786;37.682;2022-09-20T08:56:28;7.07;;;0.70;;
74876;SDS011;63425;44.786;37.682;2022-09-20T08:58:57;16.98;;;1.58;;
74876;SDS011;63425;44.786;37.682;2022-09-20T09:01:27;18.65;;;2.17;;
74876;SDS011;63425;44.786;37.682;2022-09-20T09:04:03;7.63;;;0.98;;
74876;SDS011;63425;44.786;37.682;2022-09-20T09:06:38;9.13;;;1.10;;
74876;SDS011;63425;44.786;37.682;2022-09-20T09:09:06;9.97;;;1.40;;
74876;SDS011;63425;44.786;37.682;2022-09-20T09:11:33;6.18;;;1.30;;
74876;SDS011;63425;44.786;37.682;2022-09-20T09:14:11;9.52;;;1.20;;
74876;SDS011;63425;44.786;37.682;2022-09-20T09:16:59;8.15;;;1.33;;
74876;SDS011;63425;44.786;37.682;2022-09-20T09:49:17;5.35;;;1.17;;
74876;SDS011;63425;44.786;37.682;2022-09-20T09:52:30;9.02;;;1.20;;
74876;SDS011;63425;44.786;37.682;2022-09-20T09:54:38;10.53;;;1.30;;
74876;SDS011;63425;44.786;37.682;2022-09-20T14:53:41;9.05;;;1.15;;
74876;SDS011;63425;44.786;37.682;2022-09-20T14:56:10;13.65;;;1.02;;
74876;SDS011;63425;44.786;37.682;2022-09-20T15:01:23;10.45;;;1.00;;
74876;SDS011;63425;44.786;37.682;2022-09-20T15:03:50;7.33;;;1.20;;
74876;SDS011;63425;44.786;37.682;2022-09-20T15:06:18;10.70;;;1.30;;
74876;SDS011;63425;44.786;37.682;2022-09-20T15:08:46;10.50;;;1.42;;
74876;SDS011;63425;44.786;37.682;2022-09-20T15:11:13;18.65;;;1.52;;
74876;SDS011;63425;44.786;37.682;2022-09-20T15:13:41;9.27;;;1.30;;
74876;SDS011;63425;44.786;37.682;2022-09-20T15:16:08;12.17;;;1.33;;
74876;SDS011;63425;44.786;37.682;2022-09-20T15:18:40;62.20;;;3.97;;
74876;SDS011;63425;44.786;37.682;2022-09-20T15:21:09;8.75;;;1.30;;
74876;SDS011;63425;44.786;37.682;2022-09-20T15:23:38;8.95;;;1.23;;
74876;SDS011;63425;44.786;37.682;2022-09-20T15:26:07;9.52;;;1.35;;
74876;SDS011;63425;44.786;37.682;2022-09-20T15:28:36;7.20;;;1.33;;
74876;SDS011;63425;44.786;37.682;2022-09-20T15:33:30;7.93;;;1.73;;
74876;SDS011;63425;44.786;37.682;2022-09-20T15:35:59;10.50;;;1.40;;
74876;SDS011;63425;44.786;37.682;2022-09-20T15:38:29;44.63;;;13.25;;
74876;SDS011;63425;44.786;37.682;2022-09-20T15:40:58;9.03;;;1.90;;
74876;SDS011;63425;44.786;37.682;2022-09-20T15:58:10;9.25;;;0.77;;
74876;SDS011;63425;44.786;37.682;2022-09-20T16:00:43;4.03;;;0.63;;
74876;SDS011;63425;44.786;37.682;2022-09-20T16:03:31;5.27;;;0.73;;
74876;SDS011;63425;44.786;37.682;2022-09-20T16:05:59;9.48;;;0.75;;
74876;SDS011;63425;44.786;37.682;2022-09-20T16:08:30;7.13;;;1.08;;
74876;SDS011;63425;44.786;37.682;2022-09-20T16:10:58;6.82;;;0.80;;
74876;SDS011;63425;44.786;37.682;2022-09-20T16:13:26;5.43;;;0.85;;
74876;SDS011;63425;44.786;37.682;2022-09-20T16:16:00;7.63;;;1.30;;
74876;SDS011;63425;44.786;37.682;2022-09-20T16:18:28;6.78;;;1.13;;
74876;SDS011;63425;44.786;37.682;2022-09-20T16:21:13;36.42;;;3.25;;
74876;SDS011;63425;44.786;37.682;2022-09-20T16:23:41;6.57;;;1.10;;
74876;SDS011;63425;44.786;37.682;2022-09-20T16:26:09;8.57;;;1.92;;
74876;SDS011;63425;44.786;37.682;2022-09-20T16:28:40;7.30;;;1.87;;
74876;SDS011;63425;44.786;37.682;2022-09-20T16:33:59;9.32;;;2.53;;
74876;SDS011;63425;44.786;37.682;2022-09-20T16:36:28;8.82;;;2.28;;
74876;SDS011;63425;44.786;37.682;2022-09-20T16:38:56;9.50;;;2.22;;
74876;SDS011;63425;44.786;37.682;2022-09-20T16:41:23;17.33;;;3.17;;
74876;SDS011;63425;44.786;37.682;2022-09-20T16:43:50;12.77;;;3.25;;
74876;SDS011;63425;44.786;37.682;2022-09-20T16:46:19;14.60;;;4.20;;
74876;SDS011;63425;44.786;37.682;2022-09-20T16:48:47;18.02;;;4.47;;
74876;SDS011;63425;44.786;37.682;2022-09-20T16:51:22;26.92;;;4.95;;
74876;SDS011;63425;44.786;37.682;2022-09-20T16:53:50;22.43;;;3.80;;
74876;SDS011;63425;44.786;37.682;2022-09-20T16:56:23;18.70;;;4.38;;
74876;SDS011;63425;44.786;37.682;2022-09-20T16:58:50;15.75;;;4.13;;
74876;SDS011;63425;44.786;37.682;2022-09-20T17:01:18;22.13;;;4.20;;
74876;SDS011;63425;44.786;37.682;2022-09-20T17:03:45;13.38;;;3.35;;
74876;SDS011;63425;44.786;37.682;2022-09-20T17:06:12;18.43;;;4.00;;
74876;SDS011;63425;44.786;37.682;2022-09-20T17:08:40;17.25;;;4.70;;
74876;SDS011;63425;44.786;37.682;2022-09-20T17:11:14;24.20;;;4.18;;
74876;SDS011;63425;44.786;37.682;2022-09-20T17:13:48;27.58;;;4.18;;
74876;SDS011;63425;44.786;37.682;2022-09-20T17:16:23;19.67;;;3.90;;
74876;SDS011;63425;44.786;37.682;2022-09-20T17:19:00;20.57;;;5.40;;
74876;SDS011;63425;44.786;37.682;2022-09-20T17:21:29;27.27;;;6.45;;
74876;SDS011;63425;44.786;37.682;2022-09-20T17:23:57;14.75;;;4.75;;
74876;SDS011;63425;44.786;37.682;2022-09-20T17:26:27;20.90;;;4.55;;
74876;SDS011;63425;44.786;37.682;2022-09-20T17:28:58;67.38;;;9.55;;
74876;SDS011;63425;44.786;37.682;2022-09-20T17:31:27;29.97;;;6.43;;
74876;SDS011;63425;44.786;37.682;2022-09-20T17:33:56;23.98;;;4.60;;
74876;SDS011;63425;44.786;37.682;2022-09-20T17:36:28;30.90;;;4.95;;
74876;SDS011;63425;44.786;37.682;2022-09-20T17:38:56;23.33;;;3.97;;
74876;SDS011;63425;44.786;37.682;2022-09-20T17:41:23;12.60;;;3.65;;
74876;SDS011;63425;44.786;37.682;2022-09-20T17:43:57;10.17;;;3.00;;
74876;SDS011;63425;44.786;37.682;2022-09-20T17:46:29;16.10;;;3.38;;
74876;SDS011;63425;44.786;37.682;2022-09-20T17:48:58;12.63;;;3.47;;
74876;SDS011;63425;44.786;37.682;2022-09-20T17:51:31;17.33;;;3.63;;
74876;SDS011;63425;44.786;37.682;2022-09-20T17:53:59;23.85;;;4.75;;
74876;SDS011;63425;44.786;37.682;2022-09-20T17:56:27;25.20;;;4.90;;
74876;SDS011;63425;44.786;37.682;2022-09-20T17:58:59;27.52;;;4.35;;
74876;SDS011;63425;44.786;37.682;2022-09-20T18:01:27;16.52;;;3.90;;
74876;SDS011;63425;44.786;37.682;2022-09-20T18:03:58;14.38;;;2.80;;
74876;SDS011;63425;44.786;37.682;2022-09-20T18:06:27;15.63;;;3.97;;
74876;SDS011;63425;44.786;37.682;2022-09-20T18:08:54;13.40;;;3.07;;
74876;SDS011;63425;44.786;37.682;2022-09-20T18:11:23;9.82;;;2.78;;
74876;SDS011;63425;44.786;37.682;2022-09-20T18:13:53;17.73;;;3.10;;
74876;SDS011;63425;44.786;37.682;2022-09-20T18:16:20;11.25;;;3.35;;
74876;SDS011;63425;44.786;37.682;2022-09-20T18:18:48;9.30;;;2.60;;
74876;SDS011;63425;44.786;37.682;2022-09-20T18:21:21;13.90;;;2.73;;
74876;SDS011;63425;44.786;37.682;2022-09-20T18:23:50;15.27;;;3.15;;
74876;SDS011;63425;44.786;37.682;2022-09-20T18:26:23;12.98;;;3.05;;
74876;SDS011;63425;44.786;37.682;2022-09-20T18:31:28;14.20;;;3.42;;
74876;SDS011;63425;44.786;37.682;2022-09-20T18:34:01;11.10;;;2.33;;
74876;SDS011;63425;44.786;37.682;2022-09-20T18:36:28;11.00;;;2.65;;
74876;SDS011;63425;44.786;37.682;2022-09-20T18:38:56;11.55;;;2.60;;
74876;SDS011;63425;44.786;37.682;2022-09-20T18:41:23;16.40;;;2.35;;
74876;SDS011;63425;44.786;37.682;2022-09-20T18:43:51;7.57;;;2.15;;
74876;SDS011;63425;44.786;37.682;2022-09-20T18:46:19;16.33;;;2.27;;
74876;SDS011;63425;44.786;37.682;2022-09-20T18:48:52;8.50;;;2.00;;
74876;SDS011;63425;44.786;37.682;2022-09-20T18:51:20;10.80;;;2.50;;
74876;SDS011;63425;44.786;37.682;2022-09-20T18:53:50;19.00;;;3.95;;
74876;SDS011;63425;44.786;37.682;2022-09-20T18:56:24;22.45;;;3.33;;
74876;SDS011;63425;44.786;37.682;2022-09-20T18:58:52;38.70;;;4.40;;
74876;SDS011;63425;44.786;37.682;2022-09-20T19:12:02;10.50;;;2.77;;
74876;SDS011;63425;44.786;37.682;2022-09-20T19:14:42;21.92;;;3.92;;
74876;SDS011;63425;44.786;37.682;2022-09-20T19:17:16;11.45;;;2.97;;
74876;SDS011;63425;44.786;37.682;2022-09-20T19:19:59;11.90;;;2.70;;
74876;SDS011;63425;44.786;37.682;2022-09-20T19:27:27;21.58;;;3.00;;
74876;SDS011;63425;44.786;37.682;2022-09-20T19:29:56;14.27;;;2.95;;
74876;SDS011;63425;44.786;37.682;2022-09-20T19:32:26;11.48;;;3.10;;
74876;SDS011;63425;44.786;37.682;2022-09-20T19:34:53;11.43;;;3.13;;
74876;SDS011;63425;44.786;37.682;2022-09-20T19:37:39;14.27;;;2.90;;
74876;SDS011;63425;44.786;37.682;2022-09-20T19:45:52;14.65;;;3.20;;
74876;SDS011;63425;44.786;37.682;2022-09-20T19:50:52;14.43;;;3.60;;
74876;SDS011;63425;44.786;37.682;2022-09-20T19:53:21;13.75;;;3.45;;
74876;SDS011;63425;44.786;37.682;2022-09-20T19:55:51;12.95;;;3.47;;
74876;SDS011;63425;44.786;37.682;2022-09-20T19:58:20;13.65;;;3.58;;
74876;SDS011;63425;44.786;37.682;2022-09-20T20:00:48;17.00;;;3.53;;
74876;SDS011;63425;44.786;37.682;2022-09-20T20:03:16;44.30;;;4.90;;
74876;SDS011;63425;44.786;37.682;2022-09-20T20:05:53;27.55;;;3.58;;
74876;SDS011;63425;44.786;37.682;2022-09-20T20:08:24;9.73;;;2.80;;
74876;SDS011;63425;44.786;37.682;2022-09-20T20:13:48;14.32;;;2.90;;
74876;SDS011;63425;44.786;37.682;2022-09-20T20:21:58;14.40;;;2.80;;
74876;SDS011;63425;44.786;37.682;2022-09-20T20:24:30;14.63;;;2.90;;
74876;SDS011;63425;44.786;37.682;2022-09-20T20:27:00;12.27;;;2.70;;
74876;SDS011;63425;44.786;37.682;2022-09-20T20:29:27;13.93;;;3.07;;
74876;SDS011;63425;44.786;37.682;2022-09-20T20:31:56;12.90;;;3.38;;
74876;SDS011;63425;44.786;37.682;2022-09-20T20:34:25;11.57;;;3.92;;
74876;SDS011;63425;44.786;37.682;2022-09-20T20:36:52;9.57;;;3.45;;
74876;SDS011;63425;44.786;37.682;2022-09-20T20:39:28;10.43;;;3.50;;
74876;SDS011;63425;44.786;37.682;2022-09-20T20:41:58;13.77;;;3.60;;
74876;SDS011;63425;44.786;37.682;2022-09-20T20:44:28;19.35;;;3.97;;
74876;SDS011;63425;44.786;37.682;2022-09-20T20:46:55;12.70;;;4.97;;
74876;SDS011;63425;44.786;37.682;2022-09-20T20:49:21;19.02;;;5.68;;
74876;SDS011;63425;44.786;37.682;2022-09-20T20:51:49;17.25;;;5.35;;
74876;SDS011;63425;44.786;37.682;2022-09-20T20:54:18;30.70;;;5.90;;
74876;SDS011;63425;44.786;37.682;2022-09-20T20:56:46;13.57;;;4.70;;
74876;SDS011;63425;44.786;37.682;2022-09-20T20:59:12;21.00;;;5.28;;
74876;SDS011;63425;44.786;37.682;2022-09-20T21:01:40;21.50;;;6.10;;
74876;SDS011;63425;44.786;37.682;2022-09-20T21:04:12;21.13;;;6.65;;
74876;SDS011;63425;44.786;37.682;2022-09-20T21:06:40;22.73;;;5.17;;
74876;SDS011;63425;44.786;37.682;2022-09-20T21:09:08;28.65;;;4.90;;
74876;SDS011;63425;44.786;37.682;2022-09-20T21:11:37;15.35;;;4.63;;
74876;SDS011;63425;44.786;37.682;2022-09-20T21:14:06;25.50;;;5.45;;
74876;SDS011;63425;44.786;37.682;2022-09-20T21:16:33;18.15;;;4.63;;
74876;SDS011;63425;44.786;37.682;2022-09-20T21:19:00;12.57;;;4.30;;
74876;SDS011;63425;44.786;37.682;2022-09-20T21:21:29;9.88;;;3.20;;
74876;SDS011;63425;44.786;37.682;2022-09-20T21:23:58;13.80;;;3.33;;
74876;SDS011;63425;44.786;37.682;2022-09-20T21:26:27;11.60;;;3.63;;
74876;SDS011;63425;44.786;37.682;2022-09-20T21:28:59;9.68;;;3.33;;
74876;SDS011;63425;44.786;37.682;2022-09-20T21:31:33;13.80;;;4.10;;
74876;SDS011;63425;44.786;37.682;2022-09-20T21:34:03;10.30;;;3.90;;
74876;SDS011;63425;44.786;37.682;2022-09-20T21:36:31;10.82;;;3.92;;
74876;SDS011;63425;44.786;37.682;2022-09-20T21:39:00;14.77;;;4.10;;
74876;SDS011;63425;44.786;37.682;2022-09-20T21:41:28;11.32;;;3.75;;
74876;SDS011;63425;44.786;37.682;2022-09-20T21:43:57;12.30;;;3.60;;
74876;SDS011;63425;44.786;37.682;2022-09-20T21:46:31;13.98;;;3.85;;
74876;SDS011;63425;44.786;37.682;2022-09-20T21:49:00;9.32;;;2.80;;
74876;SDS011;63425;44.786;37.682;2022-09-20T21:51:30;10.65;;;2.85;;
74876;SDS011;63425;44.786;37.682;2022-09-20T21:53:59;16.95;;;3.25;;
74876;SDS011;63425;44.786;37.682;2022-09-20T21:56:28;8.50;;;2.80;;
74876;SDS011;63425;44.786;37.682;2022-09-20T21:58:57;9.73;;;2.40;;
74876;SDS011;63425;44.786;37.682;2022-09-20T22:01:27;13.75;;;3.00;;
74876;SDS011;63425;44.786;37.682;2022-09-20T22:03:57;7.53;;;2.55;;
74876;SDS011;63425;44.786;37.682;2022-09-20T22:06:28;13.40;;;3.55;;
74876;SDS011;63425;44.786;37.682;2022-09-20T22:08:56;12.33;;;3.53;;
74876;SDS011;63425;44.786;37.682;2022-09-20T22:11:24;10.98;;;2.83;;
74876;SDS011;63425;44.786;37.682;2022-09-20T22:13:51;9.48;;;2.72;;
74876;SDS011;63425;44.786;37.682;2022-09-20T22:16:19;20.20;;;3.40;;
74876;SDS011;63425;44.786;37.682;2022-09-20T22:18:47;15.48;;;3.03;;
74876;SDS011;63425;44.786;37.682;2022-09-20T22:21:17;13.53;;;3.93;;
74876;SDS011;63425;44.786;37.682;2022-09-20T22:23:52;12.18;;;3.58;;
74876;SDS011;63425;44.786;37.682;2022-09-20T22:26:20;10.50;;;3.72;;
74876;SDS011;63425;44.786;37.682;2022-09-20T22:28:48;8.80;;;2.78;;
74876;SDS011;63425;44.786;37.682;2022-09-20T22:31:17;9.80;;;2.90;;
74876;SDS011;63425;44.786;37.682;2022-09-20T22:33:56;12.90;;;3.03;;
74876;SDS011;63425;44.786;37.682;2022-09-20T22:36:24;12.15;;;3.47;;
74876;SDS011;63425;44.786;37.682;2022-09-20T22:38:50;8.93;;;3.25;;
74876;SDS011;63425;44.786;37.682;2022-09-20T22:41:19;14.65;;;3.25;;
74876;SDS011;63425;44.786;37.682;2022-09-20T22:43:47;12.35;;;3.28;;
74876;SDS011;63425;44.786;37.682;2022-09-20T22:48:46;10.07;;;3.22;;
74876;SDS011;63425;44.786;37.682;2022-09-20T22:51:17;12.20;;;3.88;;
74876;SDS011;63425;44.786;37.682;2022-09-20T22:53:46;11.13;;;3.33;;
74876;SDS011;63425;44.786;37.682;2022-09-20T22:56:13;24.67;;;4.25;;
74876;SDS011;63425;44.786;37.682;2022-09-20T22:58:41;14.63;;;4.30;;
74876;SDS011;63425;44.786;37.682;2022-09-20T23:01:09;19.83;;;4.10;;
74876;SDS011;63425;44.786;37.682;2022-09-20T23:03:41;16.40;;;4.00;;
74876;SDS011;63425;44.786;37.682;2022-09-20T23:06:12;17.02;;;3.55;;
74876;SDS011;63425;44.786;37.682;2022-09-20T23:08:40;14.90;;;3.90;;
74876;SDS011;63425;44.786;37.682;2022-09-20T23:11:07;10.00;;;3.77;;
74876;SDS011;63425;44.786;37.682;2022-09-20T23:13:35;10.32;;;3.63;;
74876;SDS011;63425;44.786;37.682;2022-09-20T23:16:08;19.98;;;4.30;;
74876;SDS011;63425;44.786;37.682;2022-09-20T23:18:38;14.20;;;3.72;;
74876;SDS011;63425;44.786;37.682;2022-09-20T23:21:06;13.07;;;3.88;;
74876;SDS011;63425;44.786;37.682;2022-09-20T23:23:33;14.50;;;4.13;;
74876;SDS011;63425;44.786;37.682;2022-09-20T23:26:10;17.48;;;4.60;;
74876;SDS011;63425;44.786;37.682;2022-09-20T23:28:39;13.20;;;3.65;;
74876;SDS011;63425;44.786;37.682;2022-09-20T23:31:08;13.68;;;3.88;;
74876;SDS011;63425;44.786;37.682;2022-09-20T23:33:36;11.10;;;3.95;;
74876;SDS011;63425;44.786;37.682;2022-09-20T23:36:07;13.53;;;3.73;;
74876;SDS011;63425;44.786;37.682;2022-09-20T23:38:36;13.63;;;4.05;;
74876;SDS011;63425;44.786;37.682;2022-09-20T23:41:08;15.30;;;4.10;;
74876;SDS011;63425;44.786;37.682;2022-09-20T23:43:37;14.45;;;4.47;;
74876;SDS011;63425;44.786;37.682;2022-09-20T23:46:07;18.52;;;4.18;;
74876;SDS011;63425;44.786;37.682;2022-09-20T23:48:37;10.50;;;4.10;;
74876;SDS011;63425;44.786;37.682;2022-09-20T23:51:09;17.33;;;3.65;;
74876;SDS011;63425;44.786;37.682;2022-09-20T23:53:37;18.20;;;3.58;;
74876;SDS011;63425;44.786;37.682;2022-09-20T23:56:03;12.35;;;3.67;;
74876;SDS011;63425;44.786;37.682;2022-09-20T23:58:31;10.15;;;3.95;;
